Aeroporto :
LOGIN :

Iscrizione | Disclaimer

   EN    FR    IT 

 










Sommario :    VFR   VFR Marginale   IFR   IFR Intensivo   IFR Molto Intensivo
Visibilità : 
Base nubi : 
>= 8 km
>= 3000ft
5 / 8 km
1000 / 3000 ft
1500m / 5 km
500 / 1000 ft
800 / 1500m
200 / 500 ft
< 800m
< 200 ft
Simboli :   Temporali  Nebbia  Neve Forte  Precipitazioni Forti  Vento > 20 kt
SIGMETs :   Varie  Temporali  Ghiacco  Turbolenza  Onda orograficha  Ceneri Vulcaniche







- Altitudine del aeroporto : 16 ft
- Codice IATA : EAS


LESO - San Sebastian Fuenterrabia

ULTIMO METAR :
  • 210200Z AUTO VRB02KT 9999 BKN037 BKN044 BKN050 21/20 Q1021

METARs OBSOLETI :
  • 210130Z AUTO 17003KT 140V200 9000 -RA SCT016 OVC042 22/20 Q1021
  • 210100Z AUTO VRB02KT 9999 SCT017 BKN038 OVC045 22/20 Q1021
  • 210030Z AUTO VRB02KT 9999 FEW017 OVC042 23/20 Q1021
  • 210000Z AUTO 36003KT 320V060 9999 FEW017 SCT038 OVC045 23/20 Q1021
  • 202330Z AUTO 36003KT 300V060 9999 SCT018 BKN026 OVC044 23/20 Q1021

TAF TAF LESO
Valido dal 21 a 00 ore il 22 a 00 ore UTC


202300Z 2100/2124 VRB04KT 9999 SCT020 BKN035 TX25/2115Z TN09/2106Z
PROB40
TEMPO 2100/2108 BKN014
PROB30
TEMPO 2103/2107 3000 -DZ BKN010
TEMPO 2111/2118 01010KT
Nessun NOTAM noto per questo aeroporto.



MetMap, La meteo Aeronautica in un colpo d'occhio ! - Copyright ORBIFLY Dicembre 2007 - Disclaimer

ORBIFLY MET'MAP TEAM :

Programmazione e sviluppo : Alexandra Zaïnal
Concezione e sviluppo : Baudouin d'Aumeries
Co-Programmazione e sviluppo : Marc-Olivier Méhu
Supporto tecnico e logistico : Manuel Goepfert
Aiuto per la traduzione : Arnaldo La Scala

Contatto : metmap@orbifly.com




FONTI E CREDITI :

   NOAA